Time;durP1;ratioP1;P1;durP2;ratioP2;P2;SDS_P1;SDS_P2;PMS_P1;PMS_P2;Temp;Humidity;BMP_temperature;BMP_pressure;BME280_temperature;BME280_humidity;BME280_pressure;Samples;Min_cycle;Max_cycle;Signal;HPM_P1;HPM_P2
2022/06/29 00:01:30;;;;;;;2.67;1.67;;;;;;;25.94;54.46;99560.91;4483585;31;34099;-85
2022/06/29 00:04:01;;;;;;;2.60;1.40;;;;;;;26.08;54.52;99556.31;4490613;31;33445;-85
2022/06/29 00:06:30;;;;;;;2.72;1.55;;;;;;;26.02;54.85;99559.44;4487606;31;32410;-85
2022/06/29 00:08:58;;;;;;;3.17;1.98;;;;;;;26.01;55.08;99557.78;4492399;31;34272;-85
2022/06/29 00:11:28;;;;;;;2.90;1.35;;;;;;;25.81;55.62;99552.19;4486052;31;34692;-84
2022/06/29 00:13:56;;;;;;;1.58;1.17;;;;;;;26.07;54.78;99547.50;4488183;31;34576;-85
2022/06/29 00:16:25;;;;;;;4.03;2.28;;;;;;;26.15;54.27;99550.38;4487216;31;33399;-85
2022/06/29 00:18:54;;;;;;;1.85;1.35;;;;;;;26.04;54.50;99544.22;4487724;31;34296;-85
2022/06/29 00:21:24;;;;;;;3.65;1.55;;;;;;;26.09;54.82;99545.53;4482996;31;34792;-85
2022/06/29 00:23:53;;;;;;;3.00;1.47;;;;;;;26.06;54.61;99547.62;4481264;31;35482;-85
2022/06/29 00:26:23;;;;;;;3.35;1.50;;;;;;;26.07;54.35;99538.66;4487519;31;34022;-85
2022/06/29 00:28:52;;;;;;;1.80;1.27;;;;;;;26.03;54.21;99546.06;4491081;31;33574;-85
2022/06/29 00:31:20;;;;;;;3.65;1.52;;;;;;;26.03;54.54;99545.22;4484458;31;34001;-85
2022/06/29 00:33:49;;;;;;;2.70;1.52;;;;;;;25.96;54.65;99531.56;4493525;31;34129;-85
2022/06/29 00:36:18;;;;;;;2.83;1.60;;;;;;;25.99;54.59;99527.81;4482090;31;33252;-84
2022/06/29 00:38:48;;;;;;;3.87;1.42;;;;;;;25.95;54.58;99527.19;4483067;31;34553;-85
2022/06/29 00:41:18;;;;;;;2.28;1.55;;;;;;;25.97;54.55;99519.94;4493883;31;34069;-85
2022/06/29 00:43:46;;;;;;;1.75;1.12;;;;;;;25.81;55.21;99517.66;4489847;31;34457;-85
2022/06/29 00:46:15;;;;;;;2.25;1.50;;;;;;;25.83;55.24;99514.84;4490279;31;33912;-84
2022/06/29 00:48:44;;;;;;;3.75;1.73;;;;;;;25.76;55.43;99517.19;4485549;31;34173;-85
2022/06/29 00:51:13;;;;;;;2.90;1.37;;;;;;;25.94;54.85;99515.72;4485358;31;33912;-85
2022/06/29 00:53:42;;;;;;;3.42;1.98;;;;;;;26.00;54.91;99518.84;4484311;31;34586;-84
2022/06/29 00:56:14;;;;;;;2.25;1.33;;;;;;;25.95;54.92;99514.78;4481771;31;33259;-85
2022/06/29 00:58:43;;;;;;;3.15;1.70;;;;;;;25.96;54.88;99515.63;4485376;31;34580;-84
2022/06/29 01:01:13;;;;;;;2.80;1.45;;;;;;;25.81;55.07;99520.31;4488378;31;33958;-86
2022/06/29 01:03:42;;;;;;;2.72;1.77;;;;;;;25.68;55.42;99511.59;4486666;31;33696;-84
2022/06/29 01:06:12;;;;;;;2.53;1.85;;;;;;;25.67;55.01;99509.91;4488261;31;33317;-84
2022/06/29 01:08:41;;;;;;;1.73;1.27;;;;;;;25.71;55.05;99514.88;4482857;31;34214;-84
2022/06/29 01:11:10;;;;;;;2.70;1.65;;;;;;;25.77;55.21;99516.19;4482215;31;33734;-86
2022/06/29 01:13:43;;;;;;;2.67;1.27;;;;;;;25.79;55.49;99508.13;4492229;31;34297;-85
2022/06/29 01:16:15;;;;;;;2.17;1.40;;;;;;;25.63;55.78;99516.44;4491094;31;32846;-85
2022/06/29 01:18:44;;;;;;;3.05;1.55;;;;;;;25.70;55.59;99517.66;4485132;31;33518;-84
2022/06/29 01:21:12;;;;;;;4.05;1.83;;;;;;;25.73;55.67;99517.41;4486903;31;34069;-84
2022/06/29 01:23:43;;;;;;;2.50;1.40;;;;;;;25.79;55.18;99521.41;4486834;31;34549;-84
2022/06/29 01:26:12;;;;;;;4.93;2.07;;;;;;;25.61;55.20;99518.34;4498261;31;34829;-84
2022/06/29 01:28:43;;;;;;;2.53;1.33;;;;;;;25.53;55.68;99517.16;4477686;31;33187;-84
2022/06/29 01:31:13;;;;;;;3.40;1.73;;;;;;;25.45;55.68;99521.37;4492319;31;33611;-84
2022/06/29 01:33:42;;;;;;;2.43;1.50;;;;;;;25.43;55.96;99512.69;4486418;31;35232;-85
2022/06/29 01:36:12;;;;;;;2.33;1.62;;;;;;;25.45;55.66;99508.94;4481883;32;33066;-84
2022/06/29 01:38:44;;;;;;;3.05;1.65;;;;;;;25.45;55.99;99508.94;4477758;32;34624;-84
2022/06/29 01:41:13;;;;;;;4.10;1.60;;;;;;;25.48;55.98;99503.38;4477728;32;33904;-84
2022/06/29 01:43:42;;;;;;;3.37;1.90;;;;;;;25.39;56.37;99498.78;4484783;31;33711;-84
2022/06/29 01:46:11;;;;;;;2.47;1.42;;;;;;;25.07;57.17;99498.59;4495883;31;33456;-85
2022/06/29 01:48:40;;;;;;;4.05;1.80;;;;;;;25.22;56.86;99497.44;4500921;31;33927;-84
2022/06/29 01:51:08;;;;;;;3.37;1.95;;;;;;;25.28;56.44;99489.00;4495497;31;33831;-84
2022/06/29 01:53:37;;;;;;;2.53;1.48;;;;;;;25.17;57.27;99490.78;4490242;31;34448;-84
2022/06/29 01:56:08;;;;;;;2.28;1.40;;;;;;;25.06;57.78;99494.25;4495494;31;33182;-84
2022/06/29 01:58:36;;;;;;;2.97;1.80;;;;;;;25.15;57.19;99490.87;4478707;31;32853;-86
2022/06/29 02:01:05;;;;;;;1.87;1.23;;;;;;;25.05;57.27;99490.75;4485508;32;34859;-85
2022/06/29 02:03:35;;;;;;;2.25;1.42;;;;;;;25.06;57.14;99489.78;4484773;31;33551;-84
2022/06/29 02:06:03;;;;;;;2.60;1.52;;;;;;;24.92;57.55;99492.66;4490651;31;33210;-84
2022/06/29 02:08:32;;;;;;;4.18;1.70;;;;;;;24.96;57.60;99488.81;4479786;32;33850;-84
2022/06/29 02:11:01;;;;;;;1.98;1.30;;;;;;;25.11;57.16;99492.09;4479999;32;34007;-84
2022/06/29 02:13:31;;;;;;;3.60;1.52;;;;;;;24.95;57.49;99486.25;4479608;31;34308;-84
2022/06/29 02:16:00;;;;;;;3.37;1.48;;;;;;;24.94;57.42;99481.94;4501464;31;32460;-84
2022/06/29 02:18:29;;;;;;;4.03;1.77;;;;;;;24.89;57.59;99484.94;4482444;31;33750;-85
2022/06/29 02:20:58;;;;;;;1.98;1.37;;;;;;;25.00;57.19;99479.62;4480013;32;34654;-84
2022/06/29 02:23:27;;;;;;;2.35;1.55;;;;;;;24.84;57.71;99487.06;4480170;32;34162;-84
2022/06/29 02:25:56;;;;;;;4.05;1.75;;;;;;;24.87;57.73;99482.37;4479611;32;33322;-85
2022/06/29 02:28:24;;;;;;;2.58;1.58;;;;;;;24.73;58.49;99477.28;4485107;31;34596;-84
2022/06/29 02:36:27;;;;;;;2.53;1.50;;;;;;;24.67;58.76;99481.25;4495503;31;33018;-84
2022/06/29 02:38:56;;;;;;;3.30;1.77;;;;;;;24.82;58.28;99489.84;4495451;31;34534;-84
2022/06/29 02:41:25;;;;;;;3.30;1.50;;;;;;;24.96;57.67;99480.84;4495162;31;34001;-85
2022/06/29 02:43:54;;;;;;;5.43;1.90;;;;;;;25.02;57.44;99474.22;4500383;31;33832;-85
2022/06/29 02:46:24;;;;;;;4.93;2.00;;;;;;;25.10;57.41;99480.63;4495206;31;34218;-84
2022/06/29 02:48:53;;;;;;;2.62;1.60;;;;;;;25.03;57.69;99475.91;4495128;31;34428;-86
2022/06/29 02:51:22;;;;;;;3.47;1.77;;;;;;;25.05;57.54;99477.47;4494825;31;33967;-85
2022/06/29 02:53:52;;;;;;;2.80;1.67;;;;;;;24.98;57.88;99481.56;4477591;31;33750;-84
2022/06/29 02:56:20;;;;;;;3.33;1.98;;;;;;;25.01;57.77;99481.34;4490782;31;33839;-85
2022/06/29 02:58:49;;;;;;;5.22;2.22;;;;;;;24.97;57.93;99479.03;4490183;31;34068;-84
2022/06/29 03:01:19;;;;;;;2.75;1.80;;;;;;;24.90;58.30;99471.53;4495107;31;33982;-84
2022/06/29 03:03:49;;;;;;;4.28;2.12;;;;;;;25.04;57.92;99481.09;4492557;31;34433;-84
2022/06/29 03:06:18;;;;;;;5.53;2.30;;;;;;;24.99;58.13;99475.31;4479814;32;33467;-85
2022/06/29 03:08:47;;;;;;;2.83;1.80;;;;;;;24.86;58.52;99479.84;4485561;31;33990;-84
2022/06/29 03:11:15;;;;;;;4.25;1.83;;;;;;;24.82;58.62;99486.34;4491074;31;33709;-85
2022/06/29 03:13:44;;;;;;;3.45;2.08;;;;;;;24.76;58.69;99478.84;4494927;31;33907;-84
2022/06/29 03:16:13;;;;;;;2.35;1.65;;;;;;;24.69;59.19;99479.31;4495016;31;33283;-84
2022/06/29 03:18:42;;;;;;;3.65;1.83;;;;;;;24.81;58.99;99482.84;4485961;31;34524;-84
2022/06/29 03:21:12;;;;;;;2.58;1.92;;;;;;;24.88;59.02;99491.19;4500439;31;33627;-84
2022/06/29 03:23:41;;;;;;;3.28;2.00;;;;;;;24.93;59.07;99491.69;4486258;31;33682;-84
2022/06/29 03:26:09;;;;;;;4.37;1.87;;;;;;;24.97;58.72;99485.19;4494974;31;33554;-86
2022/06/29 03:28:38;;;;;;;2.42;1.70;;;;;;;24.77;59.44;99488.53;4488844;31;33561;-85
2022/06/29 03:31:07;;;;;;;2.50;1.70;;;;;;;24.91;58.96;99475.87;4488456;31;34412;-84
2022/06/29 03:33:36;;;;;;;5.12;2.03;;;;;;;24.95;58.65;99487.09;4499118;31;34870;-84
2022/06/29 03:36:05;;;;;;;2.90;1.73;;;;;;;24.85;58.56;99484.31;4494799;31;33442;-86
2022/06/29 03:38:40;;;;;;;3.80;2.03;;;;;;;24.65;58.56;99482.31;4490527;31;34523;-85
2022/06/29 03:41:09;;;;;;;5.30;2.05;;;;;;;24.85;58.02;99484.31;4479148;32;34071;-84
2022/06/29 03:43:38;;;;;;;3.60;1.80;;;;;;;25.05;56.89;99484.59;4484539;32;33366;-84
2022/06/29 03:46:07;;;;;;;3.40;1.62;;;;;;;25.01;56.95;99489.31;4481923;32;32985;-86
2022/06/29 03:48:35;;;;;;;3.17;1.80;;;;;;;25.18;56.47;99490.69;4479738;31;33863;-84
2022/06/29 03:51:04;;;;;;;3.00;2.00;;;;;;;25.24;56.10;99494.69;4478843;32;33500;-85
2022/06/29 03:53:33;;;;;;;3.45;1.98;;;;;;;25.47;55.55;99491.09;4482049;32;34408;-84
2022/06/29 03:56:04;;;;;;;4.30;1.90;;;;;;;25.46;54.97;99494.69;4484397;32;35028;-84
2022/06/29 03:58:33;;;;;;;;;;;;;;;25.59;55.13;99488.41;4479842;31;33858;-85
2022/06/29 04:01:01;;;;;;;5.95;2.67;;;;;;;25.58;55.11;99487.56;4478940;32;34113;-84
2022/06/29 04:03:30;;;;;;;6.53;2.03;;;;;;;25.56;54.67;99478.88;4479240;31;33597;-84
2022/06/29 04:05:59;;;;;;;4.43;2.08;;;;;;;25.63;54.49;99480.09;4499243;31;32860;-84
2022/06/29 04:08:28;;;;;;;5.32;3.03;;;;;;;25.43;55.30;99471.03;4493201;31;33232;-86
2022/06/29 04:10:57;;;;;;;3.75;2.37;;;;;;;25.57;54.81;99474.44;4478775;31;34579;-84
2022/06/29 04:13:27;;;;;;;3.05;2.00;;;;;;;25.43;54.79;99476.34;4480510;32;33210;-84
2022/06/29 04:15:56;;;;;;;3.67;2.27;;;;;;;25.77;54.06;99481.66;4484402;32;35615;-85
2022/06/29 04:18:25;;;;;;;4.97;2.60;;;;;;;25.93;53.26;99479.50;4479178;31;34335;-84
2022/06/29 04:23:37;;;;;;;15.85;2.67;;;;;;;25.93;53.80;99482.16;4493539;31;33924;-84
2022/06/29 04:26:06;;;;;;;6.00;2.42;;;;;;;25.90;53.55;99490.37;4494408;31;33090;-84
2022/06/29 04:28:36;;;;;;;4.40;2.12;;;;;;;26.04;53.45;99481.28;4498537;31;33616;-84
2022/06/29 04:31:09;;;;;;;4.47;1.80;;;;;;;26.25;52.71;99484.00;4478423;32;34040;-84
2022/06/29 04:33:37;;;;;;;2.92;1.62;;;;;;;26.33;52.72;99478.91;4484402;31;33796;-84
2022/06/29 04:36:07;;;;;;;3.92;2.00;;;;;;;26.48;52.30;99478.59;4494300;31;33373;-84
2022/06/29 04:38:35;;;;;;;5.87;2.33;;;;;;;26.49;52.61;99488.28;4497324;31;33889;-84
2022/06/29 04:41:04;;;;;;;3.50;2.03;;;;;;;26.54;52.06;99486.12;4484341;31;34489;-84
2022/06/29 04:43:33;;;;;;;3.72;1.92;;;;;;;26.73;51.51;99491.59;4478924;32;33827;-84
2022/06/29 04:46:22;;;;;;;3.55;2.17;;;;;;;26.96;50.75;99488.81;4478742;32;33857;-85
2022/06/29 04:48:55;;;;;;;3.85;2.22;;;;;;;27.06;50.54;99492.38;4479460;31;34258;-84
2022/06/29 04:51:25;;;;;;;3.00;2.05;;;;;;;27.42;49.30;99487.56;4484052;32;34661;-85
2022/06/29 04:53:56;;;;;;;3.97;2.00;;;;;;;27.82;48.06;99489.41;4481643;32;34371;-84
2022/06/29 04:56:26;;;;;;;4.78;2.08;;;;;;;27.95;47.44;99483.88;4477618;32;34090;-84
2022/06/29 04:58:56;;;;;;;4.00;2.25;;;;;;;28.46;46.16;99494.38;4478475;31;33762;-84
2022/06/29 05:01:28;;;;;;;4.57;2.22;;;;;;;28.83;45.14;99490.16;4477837;31;33288;-85
2022/06/29 05:03:59;;;;;;;3.85;2.08;;;;;;;28.71;45.32;99492.97;4481677;32;32082;-84
2022/06/29 05:06:28;;;;;;;3.22;1.67;;;;;;;29.18;44.34;99500.22;4477766;32;32969;-86
2022/06/29 05:08:57;;;;;;;3.83;1.80;;;;;;;29.35;43.48;99491.47;4478190;31;33850;-84
2022/06/29 05:11:26;;;;;;;3.47;1.90;;;;;;;29.66;43.37;99493.91;4481577;31;33767;-84
2022/06/29 05:13:55;;;;;;;3.83;1.85;;;;;;;29.80;42.67;99494.44;4494787;31;33735;-84
2022/06/29 05:16:25;;;;;;;4.07;2.20;;;;;;;29.93;42.50;99495.75;4499472;31;33286;-84
2022/06/29 05:18:54;;;;;;;4.55;2.60;;;;;;;29.84;42.26;99496.66;4495698;31;32581;-84
2022/06/29 05:21:25;;;;;;;3.08;1.98;;;;;;;29.92;41.56;99506.59;4492052;31;34140;-84
2022/06/29 05:23:54;;;;;;;2.92;1.70;;;;;;;30.23;41.59;99506.25;4494769;31;33792;-84
2022/06/29 05:26:24;;;;;;;3.90;1.90;;;;;;;30.23;42.19;99500.91;4500681;31;32918;-84
2022/06/29 05:28:53;;;;;;;2.47;1.60;;;;;;;30.39;41.17;99503.78;4486460;31;33814;-84
2022/06/29 05:31:23;;;;;;;3.12;1.87;;;;;;;30.16;41.64;99506.03;4491209;31;34048;-84
2022/06/29 05:33:53;;;;;;;3.53;1.80;;;;;;;30.22;41.42;99505.44;4494866;31;33705;-86
2022/06/29 05:36:22;;;;;;;3.22;2.37;;;;;;;30.27;41.04;99502.34;4500466;31;32416;-84
2022/06/29 05:38:51;;;;;;;3.42;1.98;;;;;;;30.06;41.43;99494.53;4499630;31;32423;-84
2022/06/29 05:41:20;;;;;;;3.45;1.70;;;;;;;30.19;41.19;99497.72;4481021;31;34518;-85
2022/06/29 05:43:51;;;;;;;2.83;1.60;;;;;;;30.39;41.22;99496.59;4479190;32;33680;-84
2022/06/29 05:46:22;;;;;;;3.30;1.65;;;;;;;30.58;41.08;99492.94;4482149;31;33757;-85
2022/06/29 05:48:53;;;;;;;5.90;2.55;;;;;;;30.82;40.60;99486.94;4500529;31;33902;-84
2022/06/29 05:51:21;;;;;;;4.03;2.22;;;;;;;30.76;40.15;99486.72;4481432;31;34459;-85
2022/06/29 05:53:50;;;;;;;8.73;2.50;;;;;;;30.96;39.72;99493.62;4479284;32;34409;-85
2022/06/29 05:56:19;;;;;;;4.60;1.92;;;;;;;31.04;39.49;99488.31;4478934;32;32984;-85
2022/06/29 05:58:48;;;;;;;3.37;2.12;;;;;;;31.06;39.17;99488.16;4484847;32;34543;-84
2022/06/29 06:01:17;;;;;;;4.87;1.87;;;;;;;31.01;39.20;99485.13;4480073;31;33935;-85
2022/06/29 06:03:46;;;;;;;3.83;2.30;;;;;;;30.92;39.81;99481.53;4481190;31;33925;-85
2022/06/29 06:06:17;;;;;;;5.43;3.03;;;;;;;30.91;39.85;99489.75;4495649;31;34063;-85
2022/06/29 06:08:45;;;;;;;4.40;2.00;;;;;;;30.48;40.22;99481.47;4493375;31;34140;-85
2022/06/29 06:11:14;;;;;;;3.58;1.70;;;;;;;30.52;40.63;99477.50;4499766;31;34615;-85
2022/06/29 06:13:43;;;;;;;2.47;1.77;;;;;;;29.98;42.01;99471.22;4495009;31;33714;-85
2022/06/29 06:16:12;;;;;;;5.72;1.70;;;;;;;29.98;41.95;99476.56;4495247;31;33560;-87
2022/06/29 06:19:01;;;;;;;4.60;2.00;;;;;;;29.67;42.11;99482.25;4495382;31;34040;-86
2022/06/29 06:21:31;;;;;;;4.15;2.37;;;;;;;29.60;42.33;99482.94;4483088;31;33762;-86
2022/06/29 06:24:00;;;;;;;4.50;2.08;;;;;;;29.64;42.68;99477.13;4480890;32;33728;-86
2022/06/29 06:26:29;;;;;;;3.53;2.00;;;;;;;29.76;42.37;99484.00;4492951;31;34231;-86
2022/06/29 06:28:58;;;;;;;5.03;2.35;;;;;;;29.68;42.65;99478.56;4494977;31;34640;-86
2022/06/29 06:31:27;;;;;;;5.22;2.05;;;;;;;29.76;42.63;99481.34;4484903;31;34388;-87
2022/06/29 06:33:56;;;;;;;3.87;1.90;;;;;;;29.51;43.33;99480.16;4479958;32;34099;-86
2022/06/29 06:36:25;;;;;;;3.37;2.30;;;;;;;29.94;42.77;99483.22;4480113;31;33338;-86
2022/06/29 06:38:55;;;;;;;3.22;2.00;;;;;;;30.04;42.47;99483.19;4492503;31;33941;-86
2022/06/29 06:41:25;;;;;;;3.67;1.75;;;;;;;29.80;42.55;99484.56;4493761;31;34055;-86
2022/06/29 06:43:55;;;;;;;3.87;1.77;;;;;;;30.05;42.30;99487.53;4494306;31;33038;-86
2022/06/29 06:46:25;;;;;;;2.35;1.67;;;;;;;29.96;42.26;99483.91;4494597;31;33406;-86
2022/06/29 06:48:54;;;;;;;5.45;2.22;;;;;;;30.18;41.99;99467.44;4494651;31;33534;-86
2022/06/29 06:51:24;;;;;;;4.55;2.53;;;;;;;30.08;42.26;99471.16;4492282;31;33951;-87
2022/06/29 06:53:55;;;;;;;10.05;2.67;;;;;;;30.03;42.61;99468.09;4479839;32;34070;-86
2022/06/29 06:56:23;;;;;;;3.17;1.80;;;;;;;30.10;42.33;99462.00;4479373;32;32774;-85
2022/06/29 06:58:52;;;;;;;3.42;1.80;;;;;;;30.22;42.35;99467.13;4479534;32;33648;-85
2022/06/29 07:01:24;;;;;;;6.03;2.30;;;;;;;30.17;41.76;99459.56;4479797;31;33998;-85
2022/06/29 07:03:52;;;;;;;4.53;1.73;;;;;;;30.32;41.37;99462.56;4482767;31;33611;-85
2022/06/29 07:06:22;;;;;;;4.40;2.55;;;;;;;30.41;41.34;99465.19;4484918;31;33242;-85
2022/06/29 07:08:51;;;;;;;3.70;2.05;;;;;;;30.28;41.41;99461.22;4490846;31;33884;-85
2022/06/29 07:11:21;;;;;;;7.90;2.30;;;;;;;30.05;41.86;99455.41;4490236;31;33443;-85
2022/06/29 07:13:50;;;;;;;5.90;2.05;;;;;;;30.14;41.76;99451.84;4477878;31;33445;-85
2022/06/29 07:16:19;;;;;;;3.90;2.15;;;;;;;30.54;41.44;99447.88;4479260;32;34130;-85
2022/06/29 07:18:48;;;;;;;5.18;2.22;;;;;;;30.22;41.38;99446.56;4497989;31;33833;-85
2022/06/29 07:21:17;;;;;;;4.50;1.95;;;;;;;30.52;41.35;99441.88;4491878;31;34866;-86
2022/06/29 07:23:46;;;;;;;3.05;2.03;;;;;;;30.53;40.91;99439.00;4480038;32;33944;-85
2022/06/29 07:26:14;;;;;;;4.75;2.22;;;;;;;30.51;41.22;99448.19;4481341;32;35027;-85
2022/06/29 07:28:45;;;;;;;5.30;1.95;;;;;;;30.78;41.25;99447.22;4479065;32;34208;-84
2022/06/29 07:31:13;;;;;;;4.80;1.92;;;;;;;30.81;40.61;99446.94;4487210;31;35046;-85
2022/06/29 07:33:42;;;;;;;4.57;1.87;;;;;;;30.58;41.24;99452.78;4494652;31;34820;-85
2022/06/29 07:36:18;;;;;;;5.70;2.30;;;;;;;30.59;40.46;99453.59;4494558;31;33161;-85
2022/06/29 07:38:47;;;;;;;4.50;2.08;;;;;;;30.93;40.73;99451.06;4493883;31;33530;-85
2022/06/29 07:41:16;;;;;;;3.60;1.70;;;;;;;31.29;39.79;99444.75;4493937;31;34026;-85
2022/06/29 07:43:48;;;;;;;5.43;1.90;;;;;;;31.11;40.21;99447.50;4494684;31;33559;-85
2022/06/29 07:46:17;;;;;;;6.50;2.35;;;;;;;31.30;40.10;99441.91;4500029;31;35099;-85
2022/06/29 07:48:46;;;;;;;4.53;1.90;;;;;;;31.37;39.30;99447.47;4494426;31;34487;-85
2022/06/29 07:51:15;;;;;;;4.82;2.05;;;;;;;31.49;38.87;99450.75;4495654;31;34278;-85
2022/06/29 07:53:44;;;;;;;5.15;2.33;;;;;;;31.64;38.87;99443.78;4494458;31;34039;-85
2022/06/29 07:56:13;;;;;;;7.35;2.08;;;;;;;31.71;38.08;99450.16;4494876;31;33852;-85
2022/06/29 07:58:42;;;;;;;4.05;2.17;;;;;;;31.58;38.45;99450.63;4487176;31;34588;-85
2022/06/29 08:01:12;;;;;;;2.92;1.70;;;;;;;31.73;38.26;99450.84;4479039;32;33606;-85
2022/06/29 08:03:41;;;;;;;4.90;2.10;;;;;;;31.64;38.75;99455.34;4479992;31;34125;-85
2022/06/29 08:06:10;;;;;;;4.65;2.10;;;;;;;31.94;37.50;99439.66;4480018;31;33115;-85
2022/06/29 08:08:41;;;;;;;5.90;2.22;;;;;;;31.51;38.48;99441.56;4477309;31;33728;-85
2022/06/29 08:11:13;;;;;;;4.62;2.20;;;;;;;32.09;38.07;99439.91;4482347;31;33866;-85
2022/06/29 08:13:42;;;;;;;4.82;2.05;;;;;;;32.27;38.11;99440.59;4486563;31;33469;-85
2022/06/29 08:16:12;;;;;;;3.15;1.58;;;;;;;32.48;37.36;99445.50;4491481;31;33382;-85
2022/06/29 08:18:41;;;;;;;5.32;1.85;;;;;;;32.66;36.74;99445.34;4484706;31;33721;-85
2022/06/29 08:21:10;;;;;;;2.90;1.50;;;;;;;32.84;36.05;99447.03;4477407;31;33511;-85
2022/06/29 08:23:39;;;;;;;4.07;1.85;;;;;;;32.69;35.69;99442.34;4483747;31;33971;-84
2022/06/29 08:26:14;;;;;;;3.30;1.90;;;;;;;32.69;35.41;99445.03;4482990;31;33435;-85
2022/06/29 08:29:03;;;;;;;2.60;1.65;;;;;;;32.42;35.59;99438.09;4480590;31;34631;-85
2022/06/29 08:31:34;;;;;;;3.60;1.80;;;;;;;32.83;36.02;99448.84;4484799;31;34010;-85
2022/06/29 08:34:04;;;;;;;6.00;3.17;;;;;;;32.58;35.09;99439.97;4476894;31;33465;-85
2022/06/29 08:36:33;;;;;;;4.28;2.10;;;;;;;32.59;35.31;99433.59;4491294;31;34079;-85
2022/06/29 08:39:18;;;;;;;5.15;2.00;;;;;;;32.90;35.11;99435.59;4492721;31;34330;-85
2022/06/29 08:41:47;;;;;;;5.05;1.98;;;;;;;32.87;35.11;99420.63;4496408;31;34296;-85
2022/06/29 08:44:16;;;;;;;5.03;2.20;;;;;;;32.79;35.18;99431.41;4491337;31;33735;-85
2022/06/29 08:46:46;;;;;;;3.85;2.00;;;;;;;32.90;34.74;99422.97;4492100;31;32967;-85
2022/06/29 08:49:15;;;;;;;3.28;1.58;;;;;;;33.22;35.04;99426.62;4491033;31;34355;-85
2022/06/29 08:51:45;;;;;;;2.45;1.42;;;;;;;33.55;33.58;99427.34;4492180;31;34026;-85
2022/06/29 08:54:16;;;;;;;3.20;1.83;;;;;;;33.67;32.62;99438.59;4497954;31;34019;-85
2022/06/29 08:56:46;;;;;;;3.25;1.62;;;;;;;33.64;32.35;99430.06;4486608;31;33162;-86
2022/06/29 08:59:16;;;;;;;4.20;2.05;;;;;;;33.74;32.26;99426.12;4488978;31;33428;-85
2022/06/29 09:01:52;;;;;;;3.65;2.10;;;;;;;33.94;32.63;99422.97;4488492;31;34669;-84
2022/06/29 09:04:21;;;;;;;3.05;1.55;;;;;;;33.99;32.10;99416.03;4484160;31;34535;-85
2022/06/29 09:06:53;;;;;;;4.10;1.83;;;;;;;34.25;31.27;99425.66;4490947;31;32839;-85
2022/06/29 09:09:23;;;;;;;4.00;1.50;;;;;;;34.20;30.29;99417.28;4482090;31;33752;-86
2022/06/29 09:11:53;;;;;;;5.82;1.90;;;;;;;34.31;30.82;99419.56;4489992;31;33677;-87
2022/06/29 09:14:23;;;;;;;2.15;1.17;;;;;;;34.74;30.27;99419.88;4491870;31;34619;-86
2022/06/29 09:16:56;;;;;;;1.45;1.10;;;;;;;34.55;29.05;99417.66;4491624;31;33572;-86
2022/06/29 09:19:28;;;;;;;2.60;1.30;;;;;;;34.57;29.33;99412.94;4488057;31;33755;-86
2022/06/29 09:21:59;;;;;;;2.47;1.27;;;;;;;34.61;30.25;99416.97;4492204;31;33662;-86
2022/06/29 09:24:30;;;;;;;4.70;2.20;;;;;;;34.93;29.53;99404.19;4497766;31;33888;-87
2022/06/29 09:27:02;;;;;;;3.22;1.33;;;;;;;35.10;29.55;99408.41;4492104;31;33187;-86
2022/06/29 09:29:33;;;;;;;2.67;1.33;;;;;;;35.12;30.00;99406.37;4491806;31;33536;-86
2022/06/29 09:32:14;;;;;;;2.53;1.50;;;;;;;35.46;29.49;99413.06;4492129;31;34793;-86
2022/06/29 09:34:47;;;;;;;2.08;1.25;;;;;;;35.48;29.21;99411.00;4492071;31;33451;-86
2022/06/29 09:37:17;;;;;;;2.35;1.33;;;;;;;35.64;28.46;99415.38;4490357;31;33250;-86
2022/06/29 09:39:48;;;;;;;3.55;1.77;;;;;;;35.59;27.97;99409.66;4497204;31;33934;-87
2022/06/29 09:42:22;;;;;;;4.75;1.42;;;;;;;35.60;28.11;99406.81;4492733;31;33804;-86
2022/06/29 09:44:51;;;;;;;2.90;1.40;;;;;;;35.22;27.87;99398.00;4491503;31;33798;-86
2022/06/29 09:47:23;;;;;;;3.37;1.60;;;;;;;35.48;28.44;99395.66;4478581;31;34130;-86
2022/06/29 09:49:53;;;;;;;3.72;1.52;;;;;;;35.73;28.35;99397.22;4475881;31;34575;-86
2022/06/29 09:52:23;;;;;;;2.67;1.23;;;;;;;35.62;29.07;99395.84;4481861;31;33952;-87
2022/06/29 09:54:53;;;;;;;2.08;0.93;;;;;;;35.65;27.39;99390.91;4475851;31;32692;-86
2022/06/29 09:57:25;;;;;;;3.58;1.67;;;;;;;35.90;27.67;99398.66;4488443;31;33145;-86
2022/06/29 10:02:43;;;;;;;2.90;1.35;;;;;;;36.14;28.03;99389.38;4483400;31;34740;-86
2022/06/29 10:05:13;;;;;;;2.17;1.27;;;;;;;36.27;27.64;99384.09;4488137;31;33981;-86
2022/06/29 10:07:44;;;;;;;3.75;1.42;;;;;;;36.04;26.87;99392.34;4499560;31;33705;-86
2022/06/29 10:10:14;;;;;;;2.78;1.62;;;;;;;36.06;26.05;99381.38;4480409;31;33441;-86
2022/06/29 10:16:09;;;;;;;2.85;1.35;;;;;;;36.45;25.86;99371.97;4482083;31;33770;-86
2022/06/29 10:19:03;;;;;;;3.55;1.50;;;;;;;36.61;24.68;99366.31;4490904;31;33069;-86
2022/06/29 10:21:32;;;;;;;3.28;1.70;;;;;;;36.80;24.81;99372.91;4492644;31;33972;-87
2022/06/29 10:24:02;;;;;;;1.77;1.33;;;;;;;36.91;25.42;99364.22;4487134;31;34699;-86
2022/06/29 10:26:41;;;;;;;3.50;1.60;;;;;;;36.93;25.06;99364.03;4485335;31;34447;-87
2022/06/29 10:29:31;;;;;;;4.32;1.83;;;;;;;37.18;24.77;99353.56;4484927;31;32817;-87
2022/06/29 10:32:05;;;;;;;;;;;;;;;37.33;25.06;99350.72;4499978;31;33149;-86
2022/06/29 10:35:05;;;;;;;1.33;0.90;;;;;;;37.43;24.58;99358.44;4494937;31;33777;-87
2022/06/29 10:37:32;;;;;;;3.28;1.20;;;;;;;37.31;24.50;99347.41;4482335;31;34541;-85
2022/06/29 10:40:05;;;;;;;4.20;1.58;;;;;;;37.09;24.18;99342.09;4485136;31;34106;-86
2022/06/29 10:45:40;;;;;;;3.90;1.20;;;;;;;37.82;24.15;99338.81;4483063;31;34817;-86
2022/06/29 10:48:24;;;;;;;2.95;1.45;;;;;;;37.85;24.67;99337.56;4483177;31;33746;-87
2022/06/29 10:50:55;;;;;;;3.03;1.40;;;;;;;38.22;24.31;99339.69;4479291;31;33751;-86
2022/06/29 10:53:24;;;;;;;2.00;1.05;;;;;;;38.20;24.01;99324.69;4497591;31;33088;-87
2022/06/29 10:55:55;;;;;;;2.03;1.35;;;;;;;38.26;23.51;99326.56;4477672;31;35222;-87
2022/06/29 10:58:24;;;;;;;3.37;1.65;;;;;;;38.53;23.25;99330.13;4477019;31;33556;-87
2022/06/29 11:00:54;;;;;;;3.87;1.45;;;;;;;38.50;22.98;99321.59;4481278;31;33452;-87
2022/06/29 11:03:25;;;;;;;;;;;;;;;38.69;23.17;99326.16;4485779;31;35580;-87
2022/06/29 11:17:04;;;;;;;3.55;1.40;;;;;;;39.10;22.44;99313.31;4479500;31;34434;-87
2022/06/29 11:19:34;;;;;;;2.58;1.40;;;;;;;39.27;21.76;99303.66;4493430;31;34213;-86
2022/06/29 11:22:15;;;;;;;3.42;1.35;;;;;;;39.02;22.53;99298.94;4491617;31;32401;-86
2022/06/29 11:24:54;;;;;;;3.03;1.58;;;;;;;39.45;22.41;99292.91;4489263;31;33298;-86
2022/06/29 11:27:35;;;;;;;2.80;1.08;;;;;;;39.56;22.04;99294.13;4483140;31;34609;-86
2022/06/29 11:30:07;;;;;;;2.22;1.00;;;;;;;39.77;22.70;99292.06;4497552;31;33688;-86
2022/06/29 11:32:41;;;;;;;2.47;1.23;;;;;;;39.81;21.87;99283.31;4487002;31;33288;-87
2022/06/29 11:35:11;;;;;;;1.98;1.17;;;;;;;39.98;21.06;99280.03;4483201;31;33160;-87
2022/06/29 11:37:52;;;;;;;1.60;1.20;;;;;;;40.06;21.71;99280.59;4482871;31;34020;-86
2022/06/29 11:40:22;;;;;;;1.85;1.12;;;;;;;39.81;20.78;99277.03;4483651;31;33461;-87
2022/06/29 11:43:07;;;;;;;3.35;1.23;;;;;;;40.15;21.30;99273.00;4486602;31;32087;-86
2022/06/29 11:45:38;;;;;;;2.87;1.10;;;;;;;39.33;20.66;99269.37;4488491;31;33108;-87
2022/06/29 11:48:15;;;;;;;1.70;1.10;;;;;;;39.89;20.16;99263.19;4489658;31;34059;-87
2022/06/29 11:50:46;;;;;;;2.17;0.88;;;;;;;39.71;20.79;99266.66;4488796;31;34070;-86
2022/06/29 11:53:41;;;;;;;2.67;1.10;;;;;;;39.99;19.91;99266.25;4489945;31;34143;-87
2022/06/29 11:56:11;;;;;;;2.78;1.08;;;;;;;40.10;19.31;99260.06;4486195;31;33617;-88
2022/06/29 11:58:42;;;;;;;6.75;1.45;;;;;;;40.28;20.58;99250.31;4482355;31;33645;-86
2022/06/29 12:01:13;;;;;;;1.83;1.00;;;;;;;40.14;19.44;99255.03;4485687;31;34332;-86
2022/06/29 12:03:48;;;;;;;3.12;1.67;;;;;;;39.83;20.76;99248.63;4483488;31;34106;-86
2022/06/29 12:06:18;;;;;;;1.83;0.98;;;;;;;40.47;20.12;99245.72;4481662;31;33853;-87
2022/06/29 12:08:49;;;;;;;1.60;1.05;;;;;;;40.79;20.64;99249.16;4477068;31;34000;-87
2022/06/29 12:11:18;;;;;;;2.08;1.00;;;;;;;40.76;19.32;99237.91;4492730;31;34251;-87
2022/06/29 12:13:47;;;;;;;3.23;1.83;;;;;;;40.81;19.44;99233.44;4488578;31;33433;-87
2022/06/29 12:16:16;;;;;;;2.70;1.05;;;;;;;40.80;19.31;99228.25;4485816;31;34284;-88
2022/06/29 12:18:45;;;;;;;1.83;1.20;;;;;;;40.88;20.04;99225.19;4482581;31;33938;-86